DZH403 LGMK-DAAG
Flight info
| Callsign | DZH403 |
|---|---|
| Flight time | N/A |
| Altitude | 34000 |
| Route | DIDIS UR32 MIL UP32 MONUV UN45 ROTAS/N0458F300 N45 BINKO M978 GZO M980 DEXOL M726 NEVNA L30 OMENI UL874 DIMAO UZ888 BABOR UA31 ALR |
| Aircraft | A321/M-SDE3FGHIRWY/LB1 |
Departure
| Time | 2026-04-30 09:58 |
|---|---|
| Airport | Mykonos Island National Airport (LGMK) |
Arrival
| Time | N/A |
|---|---|
| Airport | Houari Boumediene Airport (DAAG) |
| Time | Latitude | Longitude | Altitude | Speed | Heading |
|---|---|---|---|---|---|
| 2026-04-30 09:42 | 37.43541 | 25.34633 | 406 ft | 0 kts | 251° |
| 2026-04-30 09:52 | 37.43538 | 25.34626 | 406 ft | 0 kts | 243° |
| 2026-04-30 09:52 | 37.43538 | 25.34624 | 406 ft | 0 kts | 241° |
| 2026-04-30 09:53 | 37.43537 | 25.34623 | 406 ft | 0 kts | 240° |
| 2026-04-30 09:53 | 37.43522 | 25.34611 | 407 ft | 4 kts | 190° |
| 2026-04-30 09:53 | 37.43493 | 25.34631 | 407 ft | 5 kts | 125° |
| 2026-04-30 09:53 | 37.43484 | 25.34659 | 407 ft | 7 kts | 100° |
| 2026-04-30 09:54 | 37.43482 | 25.34673 | 407 ft | 7 kts | 107° |
| 2026-04-30 09:54 | 37.43451 | 25.34732 | 407 ft | 5 kts | 130° |
| 2026-04-30 09:54 | 37.43420 | 25.34781 | 407 ft | 8 kts | 126° |
| 2026-04-30 09:54 | 37.43379 | 25.34853 | 406 ft | 11 kts | 124° |
| 2026-04-30 09:55 | 37.43311 | 25.34916 | 405 ft | 13 kts | 161° |
| 2026-04-30 09:55 | 37.43217 | 25.34954 | 404 ft | 14 kts | 162° |
| 2026-04-30 09:55 | 37.43121 | 25.35002 | 403 ft | 15 kts | 156° |
| 2026-04-30 09:55 | 37.43016 | 25.35048 | 401 ft | 16 kts | 161° |
| 2026-04-30 09:56 | 37.42906 | 25.35095 | 397 ft | 13 kts | 161° |
| 2026-04-30 09:56 | 37.42817 | 25.35133 | 390 ft | 11 kts | 160° |
| 2026-04-30 09:56 | 37.42755 | 25.35168 | 384 ft | 7 kts | 190° |
| 2026-04-30 09:56 | 37.42751 | 25.35154 | 384 ft | 0 kts | 349° |
| 2026-04-30 09:57 | 37.42750 | 25.35154 | 383 ft | 0 kts | 349° |
| 2026-04-30 09:57 | 37.42907 | 25.35093 | 397 ft | 60 kts | 340° |
| 2026-04-30 09:57 | 37.43546 | 25.34811 | 407 ft | 133 kts | 340° |
| 2026-04-30 09:57 | 37.44613 | 25.34329 | 581 ft | 174 kts | 340° |
| 2026-04-30 09:58 | 37.45573 | 25.33881 | 1652 ft | 141 kts | 339° |
| 2026-04-30 09:58 | 37.46466 | 25.33336 | 2161 ft | 144 kts | 322° |
| 2026-04-30 09:58 | 37.47057 | 25.32336 | 2383 ft | 149 kts | 278° |
| 2026-04-30 09:58 | 37.47004 | 25.31021 | 2601 ft | 156 kts | 262° |
| 2026-04-30 09:59 | 37.47073 | 25.27931 | 2623 ft | 214 kts | 278° |
| 2026-04-30 09:59 | 37.47754 | 25.23947 | 3237 ft | 247 kts | 282° |
| 2026-04-30 10:00 | 37.47218 | 25.19888 | 4461 ft | 251 kts | 224° |
| 2026-04-30 10:00 | 37.45703 | 25.18839 | 5105 ft | 252 kts | 197° |
| 2026-04-30 10:01 | 37.42359 | 25.17479 | 6342 ft | 257 kts | 201° |
| 2026-04-30 10:01 | 37.40633 | 25.16927 | 6934 ft | 261 kts | 183° |
| 2026-04-30 10:01 | 37.38807 | 25.17261 | 7381 ft | 272 kts | 165° |
| 2026-04-30 10:02 | 37.35060 | 25.18717 | 8358 ft | 286 kts | 163° |
| 2026-04-30 10:02 | 37.33153 | 25.19459 | 8951 ft | 289 kts | 164° |
| 2026-04-30 10:02 | 37.31239 | 25.20189 | 9530 ft | 291 kts | 165° |
| 2026-04-30 10:02 | 37.29288 | 25.20922 | 10106 ft | 294 kts | 165° |
| 2026-04-30 10:03 | 37.27336 | 25.21652 | 10656 ft | 296 kts | 165° |
| 2026-04-30 10:03 | 37.25344 | 25.22394 | 11201 ft | 299 kts | 165° |
| 2026-04-30 10:03 | 37.23351 | 25.23132 | 11727 ft | 302 kts | 166° |
| 2026-04-30 10:03 | 37.21279 | 25.23417 | 12200 ft | 301 kts | 191° |
| 2026-04-30 10:04 | 37.19331 | 25.22503 | 12670 ft | 299 kts | 216° |
| 2026-04-30 10:04 | 37.17850 | 25.20670 | 12913 ft | 307 kts | 234° |
| 2026-04-30 10:04 | 37.16526 | 25.18491 | 13149 ft | 320 kts | 233° |
| 2026-04-30 10:04 | 37.15136 | 25.16242 | 13378 ft | 332 kts | 233° |
| 2026-04-30 10:05 | 37.13677 | 25.13919 | 13600 ft | 344 kts | 233° |
| 2026-04-30 10:05 | 37.12189 | 25.11549 | 13816 ft | 356 kts | 233° |
| 2026-04-30 10:05 | 37.10636 | 25.09059 | 14035 ft | 366 kts | 233° |
| 2026-04-30 10:05 | 37.09050 | 25.06514 | 14424 ft | 371 kts | 233° |
| 2026-04-30 10:06 | 37.07473 | 25.03989 | 14889 ft | 373 kts | 233° |
| 2026-04-30 10:06 | 37.05869 | 25.01422 | 15359 ft | 375 kts | 234° |
| 2026-04-30 10:06 | 37.04248 | 24.98828 | 15808 ft | 378 kts | 234° |
| 2026-04-30 10:06 | 37.02631 | 24.96239 | 16230 ft | 381 kts | 234° |
| 2026-04-30 10:07 | 37.00990 | 24.93617 | 16676 ft | 383 kts | 234° |
| 2026-04-30 10:07 | 36.99360 | 24.91015 | 17091 ft | 386 kts | 234° |
| 2026-04-30 10:07 | 36.97693 | 24.88355 | 17512 ft | 388 kts | 234° |
| 2026-04-30 10:07 | 36.96035 | 24.85708 | 17944 ft | 391 kts | 234° |
| 2026-04-30 10:08 | 36.94342 | 24.83012 | 18329 ft | 393 kts | 234° |
| 2026-04-30 10:08 | 36.92662 | 24.80339 | 18747 ft | 395 kts | 234° |
| 2026-04-30 10:08 | 36.90955 | 24.77626 | 19158 ft | 397 kts | 234° |
| 2026-04-30 10:08 | 36.89244 | 24.74910 | 19540 ft | 399 kts | 234° |
| 2026-04-30 10:09 | 36.87530 | 24.72189 | 19909 ft | 400 kts | 234° |
| 2026-04-30 10:09 | 36.85821 | 24.69479 | 20282 ft | 402 kts | 234° |
| 2026-04-30 10:09 | 36.84087 | 24.66732 | 20653 ft | 403 kts | 234° |
| 2026-04-30 10:09 | 36.82344 | 24.63971 | 20999 ft | 404 kts | 234° |
| 2026-04-30 10:10 | 36.80613 | 24.61232 | 21325 ft | 407 kts | 234° |
| 2026-04-30 10:10 | 36.78852 | 24.58450 | 21666 ft | 408 kts | 234° |
| 2026-04-30 10:10 | 36.77087 | 24.55661 | 22009 ft | 410 kts | 234° |
| 2026-04-30 10:10 | 36.75343 | 24.52908 | 22329 ft | 412 kts | 234° |
| 2026-04-30 10:11 | 36.73581 | 24.50090 | 22649 ft | 413 kts | 235° |
| 2026-04-30 10:11 | 36.71836 | 24.47220 | 22976 ft | 414 kts | 236° |
| 2026-04-30 10:11 | 36.70096 | 24.44343 | 23281 ft | 416 kts | 236° |
| 2026-04-30 10:11 | 36.68372 | 24.41497 | 23582 ft | 418 kts | 236° |
| 2026-04-30 10:12 | 36.66618 | 24.38609 | 23879 ft | 419 kts | 236° |
| 2026-04-30 10:12 | 36.64856 | 24.35709 | 24148 ft | 421 kts | 236° |
| 2026-04-30 10:12 | 36.63077 | 24.32787 | 24432 ft | 423 kts | 235° |
| 2026-04-30 10:12 | 36.61289 | 24.29854 | 24707 ft | 424 kts | 235° |
| 2026-04-30 10:13 | 36.59515 | 24.26948 | 24989 ft | 426 kts | 235° |
| 2026-04-30 10:13 | 36.57737 | 24.24037 | 25267 ft | 427 kts | 235° |
| 2026-04-30 10:13 | 36.55932 | 24.21088 | 25556 ft | 428 kts | 235° |
| 2026-04-30 10:13 | 36.54126 | 24.18137 | 25814 ft | 430 kts | 235° |
| 2026-04-30 10:14 | 36.52312 | 24.15176 | 26054 ft | 432 kts | 235° |
| 2026-04-30 10:14 | 36.50492 | 24.12209 | 26307 ft | 433 kts | 235° |
| 2026-04-30 10:14 | 36.46835 | 24.06252 | 26805 ft | 435 kts | 235° |
| 2026-04-30 10:15 | 36.44993 | 24.03255 | 27051 ft | 436 kts | 235° |
| 2026-04-30 10:15 | 36.43176 | 24.00301 | 27293 ft | 437 kts | 235° |
| 2026-04-30 10:15 | 36.41329 | 23.97302 | 27610 ft | 436 kts | 236° |
| 2026-04-30 10:15 | 36.39485 | 23.94311 | 27947 ft | 435 kts | 236° |
| 2026-04-30 10:16 | 36.37646 | 23.91330 | 28279 ft | 433 kts | 236° |
| 2026-04-30 10:16 | 36.35826 | 23.88383 | 28607 ft | 432 kts | 236° |
| 2026-04-30 10:16 | 36.34008 | 23.85442 | 28913 ft | 431 kts | 236° |
| 2026-04-30 10:17 | 36.30374 | 23.79569 | 29517 ft | 429 kts | 236° |
| 2026-04-30 10:17 | 36.26747 | 23.73714 | 30131 ft | 426 kts | 236° |
| 2026-04-30 10:17 | 36.24949 | 23.70814 | 30418 ft | 426 kts | 236° |
| 2026-04-30 10:18 | 36.23149 | 23.67912 | 30713 ft | 424 kts | 236° |
| 2026-04-30 10:18 | 36.21355 | 23.65024 | 30995 ft | 423 kts | 236° |
| 2026-04-30 10:18 | 36.19573 | 23.62161 | 31279 ft | 422 kts | 236° |
| 2026-04-30 10:19 | 36.16175 | 23.56325 | 31838 ft | 417 kts | 242° |
| 2026-04-30 10:19 | 36.14803 | 23.53177 | 32107 ft | 413 kts | 248° |
| 2026-04-30 10:19 | 36.13700 | 23.49930 | 32345 ft | 410 kts | 252° |
| 2026-04-30 10:19 | 36.12854 | 23.46582 | 32521 ft | 410 kts | 258° |
| 2026-04-30 10:20 | 36.12271 | 23.43132 | 32672 ft | 409 kts | 263° |
| 2026-04-30 10:20 | 36.11871 | 23.36167 | 33032 ft | 409 kts | 270° |
| 2026-04-30 10:20 | 36.11828 | 23.32666 | 33210 ft | 409 kts | 269° |
| 2026-04-30 10:21 | 36.11794 | 23.29133 | 33393 ft | 409 kts | 269° |
| 2026-04-30 10:21 | 36.11759 | 23.25625 | 33578 ft | 409 kts | 269° |
| 2026-04-30 10:21 | 36.11722 | 23.22139 | 33749 ft | 409 kts | 269° |
| 2026-04-30 10:21 | 36.11683 | 23.18608 | 33933 ft | 409 kts | 269° |
| 2026-04-30 10:22 | 36.11491 | 23.11595 | 34023 ft | 410 kts | 267° |
| 2026-04-30 10:22 | 36.11132 | 23.04579 | 34030 ft | 410 kts | 267° |
| 2026-04-30 10:23 | 36.10767 | 22.97602 | 34027 ft | 409 kts | 267° |
| 2026-04-30 10:23 | 36.10397 | 22.90599 | 34020 ft | 409 kts | 267° |
| 2026-04-30 10:24 | 36.10026 | 22.83611 | 34030 ft | 409 kts | 267° |
| 2026-04-30 10:24 | 36.09649 | 22.76590 | 34026 ft | 408 kts | 267° |
| 2026-04-30 10:25 | 36.09271 | 22.69646 | 34020 ft | 408 kts | 267° |
| 2026-04-30 10:25 | 36.08888 | 22.62653 | 34031 ft | 408 kts | 267° |
| 2026-04-30 10:26 | 36.08502 | 22.55681 | 34027 ft | 407 kts | 267° |
| 2026-04-30 10:26 | 36.08112 | 22.48735 | 34029 ft | 407 kts | 267° |
| 2026-04-30 10:27 | 36.07716 | 22.41767 | 34031 ft | 407 kts | 268° |
| 2026-04-30 10:27 | 36.07321 | 22.34825 | 34022 ft | 406 kts | 267° |
| 2026-04-30 10:28 | 36.06920 | 22.27879 | 34023 ft | 406 kts | 267° |
| 2026-04-30 10:28 | 36.06514 | 22.20930 | 34037 ft | 405 kts | 267° |
| 2026-04-30 10:29 | 36.06108 | 22.14014 | 34045 ft | 405 kts | 267° |
| 2026-04-30 10:29 | 36.05695 | 22.07097 | 34026 ft | 405 kts | 267° |
| 2026-04-30 10:30 | 36.05277 | 22.00161 | 34054 ft | 405 kts | 267° |
| 2026-04-30 10:30 | 36.04889 | 21.93247 | 34040 ft | 405 kts | 268° |
| 2026-04-30 10:31 | 36.04530 | 21.86343 | 34041 ft | 403 kts | 268° |
| 2026-04-30 10:31 | 36.04166 | 21.79470 | 34051 ft | 403 kts | 268° |
| 2026-04-30 10:32 | 36.03796 | 21.72553 | 34039 ft | 402 kts | 268° |
| 2026-04-30 10:32 | 36.03423 | 21.65726 | 34044 ft | 401 kts | 268° |
| 2026-04-30 10:33 | 36.03043 | 21.58846 | 34042 ft | 401 kts | 268° |
| 2026-04-30 10:33 | 36.02661 | 21.52003 | 34038 ft | 400 kts | 268° |
| 2026-04-30 10:34 | 36.02280 | 21.45183 | 34042 ft | 400 kts | 268° |
| 2026-04-30 10:34 | 36.01893 | 21.38369 | 34047 ft | 399 kts | 268° |
| 2026-04-30 10:35 | 36.01500 | 21.31526 | 34040 ft | 399 kts | 268° |
| 2026-04-30 10:35 | 36.01108 | 21.24712 | 34044 ft | 399 kts | 267° |
| 2026-04-30 10:36 | 36.00711 | 21.17893 | 34044 ft | 398 kts | 268° |
| 2026-04-30 10:36 | 36.00313 | 21.11140 | 34035 ft | 397 kts | 268° |
| 2026-04-30 10:37 | 35.99906 | 21.04354 | 34040 ft | 396 kts | 268° |
| 2026-04-30 10:37 | 35.99497 | 20.97606 | 34047 ft | 396 kts | 268° |
| 2026-04-30 10:38 | 35.99082 | 20.90805 | 34045 ft | 397 kts | 268° |
| 2026-04-30 10:38 | 35.98665 | 20.84018 | 34037 ft | 397 kts | 268° |
| 2026-04-30 10:39 | 35.98243 | 20.77270 | 34046 ft | 396 kts | 268° |
| 2026-04-30 10:39 | 35.97817 | 20.70519 | 34051 ft | 395 kts | 268° |
| 2026-04-30 10:40 | 35.97389 | 20.63787 | 34040 ft | 396 kts | 268° |
| 2026-04-30 10:40 | 35.96954 | 20.57002 | 34038 ft | 395 kts | 268° |
| 2026-04-30 10:41 | 35.96521 | 20.50297 | 34040 ft | 396 kts | 268° |
| 2026-04-30 10:41 | 35.96082 | 20.43564 | 34044 ft | 394 kts | 268° |
| 2026-04-30 10:42 | 35.95638 | 20.36821 | 34039 ft | 394 kts | 268° |
| 2026-04-30 10:42 | 35.95192 | 20.30115 | 34047 ft | 394 kts | 268° |
| 2026-04-30 10:43 | 35.94741 | 20.23386 | 34041 ft | 395 kts | 268° |
| 2026-04-30 10:43 | 35.94281 | 20.16658 | 34041 ft | 394 kts | 268° |
| 2026-04-30 10:44 | 35.93813 | 20.09956 | 34045 ft | 394 kts | 267° |
| 2026-04-30 10:44 | 35.93339 | 20.03208 | 34039 ft | 394 kts | 267° |
| 2026-04-30 10:45 | 35.92866 | 19.96531 | 34044 ft | 394 kts | 267° |
| 2026-04-30 10:45 | 35.92382 | 19.89829 | 34048 ft | 393 kts | 268° |
| 2026-04-30 10:46 | 35.91898 | 19.83139 | 34048 ft | 391 kts | 267° |
| 2026-04-30 10:46 | 35.91412 | 19.76457 | 34045 ft | 391 kts | 267° |
| 2026-04-30 10:47 | 35.90927 | 19.69835 | 34046 ft | 392 kts | 267° |
| 2026-04-30 10:47 | 35.90432 | 19.63165 | 34045 ft | 391 kts | 267° |
| 2026-04-30 10:48 | 35.89933 | 19.56493 | 34050 ft | 391 kts | 267° |
| 2026-04-30 10:48 | 35.89434 | 19.49832 | 34048 ft | 390 kts | 268° |
| 2026-04-30 10:49 | 35.88931 | 19.43201 | 34048 ft | 391 kts | 268° |
| 2026-04-30 10:49 | 35.88424 | 19.36527 | 34046 ft | 390 kts | 267° |
| 2026-04-30 10:50 | 35.87914 | 19.29889 | 34048 ft | 391 kts | 267° |
| 2026-04-30 10:50 | 35.87399 | 19.23233 | 34055 ft | 391 kts | 267° |
| 2026-04-30 10:51 | 35.86881 | 19.16593 | 34048 ft | 391 kts | 267° |
| 2026-04-30 10:51 | 35.86357 | 19.09924 | 34044 ft | 391 kts | 267° |
| 2026-04-30 10:52 | 35.85833 | 19.03287 | 34051 ft | 391 kts | 267° |
| 2026-04-30 10:52 | 35.85303 | 18.96636 | 34044 ft | 390 kts | 267° |
| 2026-04-30 10:53 | 35.84774 | 18.90008 | 34049 ft | 390 kts | 267° |
| 2026-04-30 10:53 | 35.84237 | 18.83364 | 34044 ft | 391 kts | 267° |
| 2026-04-30 10:54 | 35.83699 | 18.76735 | 34049 ft | 390 kts | 267° |
| 2026-04-30 10:54 | 35.83155 | 18.70092 | 34049 ft | 391 kts | 267° |
| 2026-04-30 10:55 | 35.82611 | 18.63487 | 34043 ft | 391 kts | 267° |
| 2026-04-30 10:55 | 35.82061 | 18.56837 | 34047 ft | 391 kts | 267° |
| 2026-04-30 10:56 | 35.81507 | 18.50184 | 34049 ft | 391 kts | 267° |
| 2026-04-30 10:56 | 35.80946 | 18.43518 | 34043 ft | 391 kts | 267° |
| 2026-04-30 10:57 | 35.80380 | 18.36853 | 34046 ft | 391 kts | 267° |
| 2026-04-30 10:57 | 35.79814 | 18.30214 | 34045 ft | 392 kts | 266° |
| 2026-04-30 10:58 | 35.79308 | 18.23558 | 34045 ft | 391 kts | 269° |
| 2026-04-30 10:58 | 35.79250 | 18.16882 | 34047 ft | 390 kts | 273° |
| 2026-04-30 10:59 | 35.79659 | 18.10274 | 34048 ft | 390 kts | 276° |
| 2026-04-30 10:59 | 35.80164 | 18.03646 | 34040 ft | 389 kts | 276° |
| 2026-04-30 11:00 | 35.80672 | 17.96999 | 34053 ft | 389 kts | 276° |
| 2026-04-30 11:00 | 35.81176 | 17.90398 | 34046 ft | 389 kts | 276° |
| 2026-04-30 11:01 | 35.81680 | 17.83774 | 34045 ft | 388 kts | 276° |
| 2026-04-30 11:01 | 35.82176 | 17.77197 | 34049 ft | 389 kts | 276° |
| 2026-04-30 11:02 | 35.82676 | 17.70548 | 34051 ft | 389 kts | 276° |
| 2026-04-30 11:02 | 35.83166 | 17.63941 | 34047 ft | 390 kts | 276° |
| 2026-04-30 11:03 | 35.83656 | 17.57292 | 34048 ft | 390 kts | 276° |
| 2026-04-30 11:04 | 35.84383 | 17.47359 | 34048 ft | 391 kts | 276° |
| 2026-04-30 11:04 | 35.84867 | 17.40682 | 34045 ft | 391 kts | 276° |
| 2026-04-30 11:05 | 35.85346 | 17.34034 | 34052 ft | 391 kts | 276° |
| 2026-04-30 11:05 | 35.85820 | 17.27398 | 34037 ft | 391 kts | 276° |
| 2026-04-30 11:06 | 35.86292 | 17.20743 | 34048 ft | 390 kts | 276° |
| 2026-04-30 11:06 | 35.86758 | 17.14100 | 34043 ft | 390 kts | 276° |
| 2026-04-30 11:07 | 35.87219 | 17.07456 | 34052 ft | 390 kts | 276° |
| 2026-04-30 11:07 | 35.87679 | 17.00837 | 34042 ft | 390 kts | 276° |
| 2026-04-30 11:08 | 35.88137 | 16.94154 | 34044 ft | 390 kts | 276° |
| 2026-04-30 11:08 | 35.88589 | 16.87530 | 34042 ft | 390 kts | 276° |
| 2026-04-30 11:09 | 35.89037 | 16.80897 | 34039 ft | 391 kts | 276° |
| 2026-04-30 11:09 | 35.89485 | 16.74221 | 34036 ft | 392 kts | 276° |
| 2026-04-30 11:10 | 35.89928 | 16.67557 | 34039 ft | 392 kts | 276° |
| 2026-04-30 11:10 | 35.90372 | 16.60839 | 34038 ft | 393 kts | 276° |
| 2026-04-30 11:11 | 35.90814 | 16.54112 | 34036 ft | 393 kts | 276° |
| 2026-04-30 11:11 | 35.91248 | 16.47417 | 34034 ft | 393 kts | 276° |
| 2026-04-30 11:12 | 35.91678 | 16.40715 | 34032 ft | 394 kts | 276° |
| 2026-04-30 11:12 | 35.92108 | 16.33968 | 34035 ft | 394 kts | 276° |
| 2026-04-30 11:13 | 35.92536 | 16.27183 | 34030 ft | 394 kts | 276° |
| 2026-04-30 11:13 | 35.92959 | 16.20461 | 34030 ft | 395 kts | 276° |
| 2026-04-30 11:14 | 35.93380 | 16.13686 | 34026 ft | 395 kts | 276° |
| 2026-04-30 11:14 | 35.93792 | 16.06961 | 34028 ft | 395 kts | 276° |
| 2026-04-30 11:15 | 35.94203 | 16.00203 | 34024 ft | 395 kts | 276° |
| 2026-04-30 11:15 | 35.94613 | 15.93416 | 34026 ft | 395 kts | 276° |
| 2026-04-30 11:16 | 35.95016 | 15.86661 | 34026 ft | 396 kts | 276° |
| 2026-04-30 11:16 | 35.95416 | 15.79894 | 34026 ft | 396 kts | 276° |
| 2026-04-30 11:17 | 35.95814 | 15.73090 | 34026 ft | 396 kts | 276° |
| 2026-04-30 11:17 | 35.96205 | 15.66342 | 34026 ft | 396 kts | 276° |
| 2026-04-30 11:18 | 35.96594 | 15.59560 | 34026 ft | 396 kts | 276° |
| 2026-04-30 11:18 | 35.97181 | 15.49405 | 34026 ft | 396 kts | 276° |
| 2026-04-30 11:19 | 35.97564 | 15.42630 | 34026 ft | 397 kts | 276° |
| 2026-04-30 11:19 | 35.97937 | 15.35881 | 34026 ft | 397 kts | 276° |
| 2026-04-30 11:20 | 35.98312 | 15.29060 | 34027 ft | 397 kts | 275° |
| 2026-04-30 11:20 | 35.98679 | 15.22306 | 34027 ft | 397 kts | 275° |
| 2026-04-30 11:21 | 35.99044 | 15.15513 | 34027 ft | 397 kts | 275° |
| 2026-04-30 11:21 | 35.99408 | 15.08705 | 34026 ft | 398 kts | 275° |
| 2026-04-30 11:22 | 35.99767 | 15.01884 | 34027 ft | 399 kts | 275° |
| 2026-04-30 11:22 | 36.00123 | 14.95031 | 34027 ft | 399 kts | 275° |
| 2026-04-30 11:23 | 36.00472 | 14.88230 | 34027 ft | 399 kts | 275° |
| 2026-04-30 11:24 | 36.00990 | 14.77997 | 34028 ft | 398 kts | 275° |
| 2026-04-30 11:24 | 36.01333 | 14.71163 | 34027 ft | 398 kts | 275° |
| 2026-04-30 11:25 | 36.01836 | 14.60938 | 34029 ft | 398 kts | 275° |
| 2026-04-30 11:26 | 36.02492 | 14.47317 | 34028 ft | 398 kts | 275° |
| 2026-04-30 11:26 | 36.02815 | 14.40486 | 34025 ft | 399 kts | 275° |
| 2026-04-30 11:27 | 36.03133 | 14.33662 | 34022 ft | 399 kts | 275° |
| 2026-04-30 11:27 | 36.03451 | 14.26787 | 34017 ft | 400 kts | 275° |
| 2026-04-30 11:28 | 36.03447 | 14.16512 | 34014 ft | 401 kts | 268° |
| 2026-04-30 11:29 | 36.02994 | 14.09644 | 34011 ft | 401 kts | 268° |
| 2026-04-30 11:29 | 36.02294 | 13.99344 | 34007 ft | 402 kts | 268° |
| 2026-04-30 11:30 | 36.01583 | 13.89050 | 34006 ft | 401 kts | 268° |
| 2026-04-30 11:31 | 36.01102 | 13.82180 | 34008 ft | 402 kts | 268° |
| 2026-04-30 11:31 | 36.00617 | 13.75295 | 34006 ft | 402 kts | 268° |
| 2026-04-30 11:32 | 36.00127 | 13.68408 | 34007 ft | 402 kts | 268° |
| 2026-04-30 11:32 | 35.99634 | 13.61560 | 34007 ft | 402 kts | 268° |
| 2026-04-30 11:33 | 35.98887 | 13.51238 | 34007 ft | 402 kts | 268° |
| 2026-04-30 11:33 | 35.98385 | 13.44349 | 34005 ft | 403 kts | 268° |
| 2026-04-30 11:34 | 35.97885 | 13.37592 | 34008 ft | 403 kts | 268° |
| 2026-04-30 11:34 | 35.98460 | 13.30812 | 34007 ft | 398 kts | 289° |
| 2026-04-30 11:35 | 36.00269 | 13.24340 | 34008 ft | 398 kts | 289° |
| 2026-04-30 11:35 | 36.02064 | 13.17904 | 34007 ft | 398 kts | 289° |
| 2026-04-30 11:36 | 36.03390 | 13.13152 | 34007 ft | 397 kts | 289° |
| 2026-04-30 11:36 | 36.04160 | 13.10293 | 34001 ft | 397 kts | 285° |
| 2026-04-30 11:37 | 36.04578 | 13.06927 | 34000 ft | 400 kts | 274° |
| 2026-04-30 11:37 | 36.04611 | 13.03506 | 34007 ft | 400 kts | 272° |
| 2026-04-30 11:37 | 36.04630 | 12.96603 | 34009 ft | 400 kts | 272° |
| 2026-04-30 11:38 | 36.04640 | 12.89727 | 34006 ft | 400 kts | 272° |
| 2026-04-30 11:38 | 36.04647 | 12.82881 | 34010 ft | 400 kts | 272° |
| 2026-04-30 11:39 | 36.04651 | 12.78971 | 34007 ft | 400 kts | 272° |
| 2026-04-30 11:39 | 36.04652 | 12.78398 | 34006 ft | 400 kts | 272° |
| 2026-04-30 11:40 | 36.04656 | 12.71628 | 34008 ft | 401 kts | 272° |
| 2026-04-30 11:40 | 36.04656 | 12.66533 | 34009 ft | 401 kts | 272° |
| 2026-04-30 11:41 | 36.04653 | 12.59646 | 34006 ft | 401 kts | 272° |
| 2026-04-30 11:41 | 36.04645 | 12.52798 | 34013 ft | 401 kts | 272° |
| 2026-04-30 11:42 | 36.04633 | 12.45905 | 34013 ft | 400 kts | 272° |
| 2026-04-30 11:42 | 36.04617 | 12.39075 | 34017 ft | 401 kts | 272° |
| 2026-04-30 11:43 | 36.04599 | 12.32892 | 34021 ft | 401 kts | 272° |
| 2026-04-30 11:43 | 36.04576 | 12.25981 | 34020 ft | 401 kts | 272° |
| 2026-04-30 11:44 | 36.04551 | 12.19111 | 34011 ft | 400 kts | 272° |
| 2026-04-30 11:44 | 36.04525 | 12.13681 | 34011 ft | 401 kts | 272° |
| 2026-04-30 11:45 | 36.04493 | 12.06804 | 34006 ft | 400 kts | 272° |
| 2026-04-30 11:45 | 36.04455 | 11.99953 | 34006 ft | 401 kts | 272° |
| 2026-04-30 11:46 | 36.04413 | 11.93162 | 34010 ft | 401 kts | 272° |
| 2026-04-30 11:46 | 36.04366 | 11.86267 | 34006 ft | 401 kts | 272° |
| 2026-04-30 11:47 | 36.04317 | 11.79402 | 34006 ft | 401 kts | 272° |
| 2026-04-30 11:47 | 36.04263 | 11.72489 | 34009 ft | 402 kts | 272° |
| 2026-04-30 11:48 | 36.04205 | 11.65702 | 34011 ft | 404 kts | 272° |
| 2026-04-30 11:48 | 36.04437 | 11.58819 | 34007 ft | 402 kts | 280° |
| 2026-04-30 11:49 | 36.05307 | 11.51977 | 34007 ft | 403 kts | 281° |
| 2026-04-30 11:49 | 36.06182 | 11.45158 | 34006 ft | 403 kts | 281° |
| 2026-04-30 11:50 | 36.07046 | 11.38299 | 34011 ft | 404 kts | 280° |
| 2026-04-30 11:50 | 36.07896 | 11.31449 | 34013 ft | 404 kts | 280° |
| 2026-04-30 11:51 | 36.08741 | 11.24599 | 34008 ft | 404 kts | 280° |
| 2026-04-30 11:51 | 36.09578 | 11.17774 | 34009 ft | 404 kts | 280° |
| 2026-04-30 11:52 | 36.10418 | 11.10897 | 34010 ft | 403 kts | 280° |
| 2026-04-30 11:52 | 36.11253 | 11.04019 | 34011 ft | 404 kts | 280° |
| 2026-04-30 11:53 | 36.12083 | 10.97160 | 34012 ft | 405 kts | 279° |
| 2026-04-30 11:53 | 36.12515 | 10.93575 | 34012 ft | 405 kts | 279° |
| 2026-04-30 11:54 | 36.13342 | 10.86661 | 34008 ft | 405 kts | 279° |
| 2026-04-30 11:54 | 36.14158 | 10.79818 | 34002 ft | 405 kts | 279° |
| 2026-04-30 11:55 | 36.14977 | 10.72910 | 34008 ft | 406 kts | 279° |
| 2026-04-30 11:55 | 36.15790 | 10.66009 | 34001 ft | 407 kts | 279° |
| 2026-04-30 11:56 | 36.16603 | 10.59086 | 34000 ft | 408 kts | 279° |
| 2026-04-30 11:56 | 36.17416 | 10.52126 | 34004 ft | 408 kts | 279° |
| 2026-04-30 11:57 | 36.18221 | 10.45198 | 34000 ft | 408 kts | 279° |
| 2026-04-30 11:57 | 36.19029 | 10.38227 | 34004 ft | 408 kts | 279° |
| 2026-04-30 11:58 | 36.19833 | 10.31289 | 34006 ft | 408 kts | 279° |
| 2026-04-30 11:58 | 36.20635 | 10.24300 | 34013 ft | 409 kts | 279° |
| 2026-04-30 11:59 | 36.21445 | 10.17199 | 34019 ft | 409 kts | 278° |
| 2026-04-30 11:59 | 36.22242 | 10.10164 | 34025 ft | 411 kts | 278° |
| 2026-04-30 12:00 | 36.23047 | 10.03000 | 34034 ft | 410 kts | 278° |
| 2026-04-30 12:00 | 36.23858 | 9.95750 | 34038 ft | 410 kts | 278° |
| 2026-04-30 12:01 | 36.24651 | 9.88634 | 34039 ft | 410 kts | 278° |
| 2026-04-30 12:01 | 36.25445 | 9.81462 | 34039 ft | 410 kts | 278° |
| 2026-04-30 12:02 | 36.26237 | 9.74283 | 34039 ft | 411 kts | 278° |
| 2026-04-30 12:02 | 36.27026 | 9.67066 | 34042 ft | 411 kts | 278° |
| 2026-04-30 12:03 | 36.28197 | 9.56284 | 34051 ft | 411 kts | 278° |
| 2026-04-30 12:04 | 36.28979 | 9.49001 | 34052 ft | 411 kts | 278° |
| 2026-04-30 12:04 | 36.29754 | 9.41770 | 34053 ft | 411 kts | 278° |
| 2026-04-30 12:05 | 36.30509 | 9.34703 | 34058 ft | 412 kts | 277° |
| 2026-04-30 12:05 | 36.31251 | 9.27694 | 34060 ft | 412 kts | 277° |
| 2026-04-30 12:06 | 36.31994 | 9.20646 | 34062 ft | 412 kts | 277° |
| 2026-04-30 12:06 | 36.32730 | 9.13628 | 34061 ft | 412 kts | 277° |
| 2026-04-30 12:07 | 36.33471 | 9.06510 | 34059 ft | 413 kts | 277° |
| 2026-04-30 12:07 | 36.34251 | 8.98987 | 34054 ft | 414 kts | 277° |
| 2026-04-30 12:08 | 36.34994 | 8.91761 | 34055 ft | 414 kts | 277° |
| 2026-04-30 12:08 | 36.35713 | 8.84713 | 34057 ft | 414 kts | 277° |
| 2026-04-30 12:09 | 36.36434 | 8.77624 | 34059 ft | 414 kts | 277° |
| 2026-04-30 12:09 | 36.37149 | 8.70528 | 34059 ft | 413 kts | 277° |
| 2026-04-30 12:10 | 36.37861 | 8.63454 | 34060 ft | 413 kts | 277° |
| 2026-04-30 12:10 | 36.38564 | 8.56393 | 34059 ft | 414 kts | 277° |
| 2026-04-30 12:11 | 36.39267 | 8.49292 | 34059 ft | 414 kts | 277° |
| 2026-04-30 12:11 | 36.39964 | 8.42184 | 34067 ft | 416 kts | 277° |
| 2026-04-30 12:12 | 36.40558 | 8.34990 | 34082 ft | 416 kts | 273° |
| 2026-04-30 12:12 | 36.40845 | 8.27773 | 34102 ft | 416 kts | 272° |
| 2026-04-30 12:13 | 36.41111 | 8.20599 | 34110 ft | 416 kts | 272° |
| 2026-04-30 12:13 | 36.41370 | 8.13452 | 34104 ft | 416 kts | 272° |
| 2026-04-30 12:14 | 36.41627 | 8.06250 | 34096 ft | 416 kts | 272° |
| 2026-04-30 12:14 | 36.41875 | 7.99114 | 34090 ft | 415 kts | 272° |
| 2026-04-30 12:15 | 36.42120 | 7.91932 | 34084 ft | 415 kts | 272° |
| 2026-04-30 12:15 | 36.42363 | 7.84749 | 34077 ft | 416 kts | 272° |
| 2026-04-30 12:16 | 36.42600 | 7.77590 | 34069 ft | 417 kts | 272° |
| 2026-04-30 12:16 | 36.42839 | 7.70222 | 34066 ft | 417 kts | 272° |
| 2026-04-30 12:17 | 36.43147 | 7.60568 | 34070 ft | 418 kts | 272° |